Babb, Montana
Current Conditions -  °F | °C
As of 3:56 PM on Wednesday 26 Nov 2014 (Local Time) from KCTB Reporting Station
Light Snow Light Snow  
Wind Chill: 19°   Ceiling: 300
Heat Index: 28°   Visibility: 1mi
Dew Point: 27°   Wind: 9mph
Humidity: 96%   Direction: 130°SE
Pressure: 30.08"   Gusts: NA
Location:  48.85°N, 113.44°W
Report Text: KCTB 262256Z AUTO 13008KT 1SM -SN BR BKN003 OVC019 M02/M03 A3008 RMK AO2 SLP222 P0002 T10221028
Loading
Personal Weather Stations






























Interactive Weather Map New forecast layout! Learn more

10-Day Weather Forecast

Advertisements
Track Severe Weather on mobile